Time;durP1;ratioP1;P1;durP2;ratioP2;P2;SDS_P1;SDS_P2;PMS_P1;PMS_P2;Temp;Humidity;BMP_temperature;BMP_pressure;BME280_temperature;BME280_humidity;BME280_pressure;Samples;Min_cycle;Max_cycle;Signal;HPM_P1;HPM_P2
2023/11/14 00:00:18;;;;;;;27.10;5.90;;;;;;;13.37;100.00;100091.50;5334397;27;20448;-72
2023/11/14 00:02:50;;;;;;;29.25;6.57;;;;;;;13.43;100.00;100090.84;5334702;28;20043;-72
2023/11/14 00:05:23;;;;;;;23.23;5.10;;;;;;;13.43;100.00;100093.50;5335277;28;20019;-72
2023/11/14 00:07:54;;;;;;;22.25;5.22;;;;;;;13.44;100.00;100113.53;5333770;28;20054;-72
2023/11/14 00:10:26;;;;;;;31.05;6.55;;;;;;;13.42;100.00;100104.19;5335555;27;20031;-72
2023/11/14 00:12:58;;;;;;;24.52;5.43;;;;;;;13.46;100.00;100097.59;5334319;28;20030;-72
2023/11/14 00:15:31;;;;;;;26.85;7.00;;;;;;;13.46;100.00;100108.13;5317237;27;20045;-72
2023/11/14 00:18:03;;;;;;;25.00;5.57;;;;;;;13.50;100.00;100114.69;5330753;27;20050;-72
2023/11/14 00:20:35;;;;;;;25.38;6.57;;;;;;;13.49;100.00;100110.44;5340472;27;20031;-72
2023/11/14 00:23:07;;;;;;;23.58;5.50;;;;;;;13.50;100.00;100114.69;5339514;27;20491;-72
2023/11/14 00:25:39;;;;;;;26.38;6.00;;;;;;;13.58;100.00;100104.16;5336773;27;20035;-72
2023/11/14 00:28:12;;;;;;;28.25;5.93;;;;;;;13.54;100.00;100114.19;5339660;27;20029;-72
2023/11/14 00:30:43;;;;;;;24.03;5.73;;;;;;;13.59;100.00;100122.41;5337220;27;20024;-72
2023/11/14 00:33:15;;;;;;;22.98;6.20;;;;;;;13.56;100.00;100122.75;5338738;27;20269;-72
2023/11/14 00:35:47;;;;;;;26.33;6.70;;;;;;;13.59;100.00;100116.31;5335812;27;20096;-72
2023/11/14 00:38:19;;;;;;;25.00;6.00;;;;;;;13.53;100.00;100103.84;5337915;27;20035;-72
2023/11/14 00:40:51;;;;;;;23.30;6.25;;;;;;;13.59;100.00;100108.41;5339525;27;20522;-72
2023/11/14 00:43:23;;;;;;;24.15;5.35;;;;;;;13.54;100.00;100110.75;5339261;27;20491;-71
2023/11/14 00:45:55;;;;;;;27.38;6.03;;;;;;;13.58;100.00;100119.94;5327882;27;20050;-71
2023/11/14 00:48:27;;;;;;;23.60;5.72;;;;;;;13.57;100.00;100118.31;5338782;27;20040;-72
2023/11/14 00:50:59;;;;;;;29.20;6.80;;;;;;;13.52;100.00;100110.06;5336901;27;20050;-72
2023/11/14 00:53:31;;;;;;;26.50;6.40;;;;;;;13.55;100.00;100109.75;5338866;27;20023;-72
2023/11/14 00:56:03;;;;;;;26.25;5.85;;;;;;;13.53;100.00;100117.00;5336205;27;20484;-72
2023/11/14 00:58:35;;;;;;;24.80;6.18;;;;;;;13.61;100.00;100101.19;5339054;27;20418;-72
2023/11/14 01:01:07;;;;;;;28.15;5.65;;;;;;;13.58;100.00;100118.13;5338716;27;20043;-72
2023/11/14 01:03:39;;;;;;;21.50;5.22;;;;;;;13.60;100.00;100123.25;5337894;27;20064;-72
2023/11/14 01:06:11;;;;;;;24.48;5.28;;;;;;;13.60;100.00;100125.88;5338208;27;20031;-72
2023/11/14 01:08:43;;;;;;;28.58;6.13;;;;;;;13.62;100.00;100118.63;5337392;27;20033;-72
2023/11/14 01:11:15;;;;;;;21.70;5.68;;;;;;;13.60;100.00;100125.88;5337285;27;20373;-72
2023/11/14 01:13:47;;;;;;;27.45;7.13;;;;;;;13.60;100.00;100128.50;5317708;27;20052;-72
2023/11/14 01:16:18;;;;;;;28.33;5.82;;;;;;;13.50;100.00;100112.88;5311617;28;20394;-72
2023/11/14 01:18:51;;;;;;;26.73;5.88;;;;;;;13.45;100.00;100122.25;5316045;28;20019;-73
2023/11/14 01:21:23;;;;;;;20.25;5.28;;;;;;;13.44;100.00;100129.31;5314024;28;20508;-72
2023/11/14 01:23:55;;;;;;;28.67;6.60;;;;;;;13.37;100.00;100113.41;5315537;28;20028;-72
2023/11/14 01:26:33;;;;;;;23.52;5.60;;;;;;;13.44;100.00;100116.16;5317081;28;20031;-72
2023/11/14 01:29:05;;;;;;;25.48;6.15;;;;;;;13.38;100.00;100122.13;5313007;28;20028;-72
2023/11/14 01:31:37;;;;;;;28.38;6.38;;;;;;;13.41;100.00;100118.31;5315801;28;20512;-72
2023/11/14 01:34:09;;;;;;;24.25;5.25;;;;;;;13.35;100.00;100125.88;5314386;28;20039;-72
2023/11/14 01:36:41;;;;;;;23.90;6.30;;;;;;;13.37;100.00;100123.06;5316032;28;20037;-72
2023/11/14 01:39:13;;;;;;;23.27;6.03;;;;;;;13.35;100.00;100123.25;5320862;27;20023;-72
2023/11/14 01:41:45;;;;;;;27.13;6.37;;;;;;;13.38;100.00;100130.81;5336667;27;20035;-72
2023/11/14 01:44:17;;;;;;;26.23;6.15;;;;;;;13.31;100.00;100140.38;5333691;27;20037;-72
2023/11/14 01:46:49;;;;;;;27.30;6.03;;;;;;;13.27;100.00;100144.31;5333276;27;20396;-72
2023/11/14 01:49:23;;;;;;;22.35;5.85;;;;;;;13.35;100.00;100141.69;5335895;27;20037;-72
2023/11/14 01:51:56;;;;;;;27.75;6.68;;;;;;;13.34;100.00;100147.94;5335290;27;20032;-72
2023/11/14 01:54:28;;;;;;;30.48;6.15;;;;;;;13.33;100.00;100151.56;5333545;27;20595;-72
2023/11/14 01:57:00;;;;;;;22.73;6.25;;;;;;;13.28;100.00;100160.91;5337045;27;20037;-72
2023/11/14 01:59:32;;;;;;;22.85;6.80;;;;;;;13.26;100.00;100153.19;5334803;27;20038;-71
2023/11/14 02:02:05;;;;;;;24.27;5.97;;;;;;;13.20;100.00;100153.00;5336670;27;20043;-72
2023/11/14 02:04:38;;;;;;;27.20;6.10;;;;;;;13.23;100.00;100179.81;5338117;27;20440;-72
2023/11/14 02:07:12;;;;;;;23.98;5.68;;;;;;;13.21;100.00;100181.75;5331448;27;20031;-72
2023/11/14 02:09:44;;;;;;;24.30;6.30;;;;;;;13.14;100.00;100184.22;5332614;27;20043;-72
2023/11/14 02:12:18;;;;;;;30.25;6.50;;;;;;;13.18;100.00;100197.03;5336256;27;20484;-72
2023/11/14 02:14:51;;;;;;;25.30;6.10;;;;;;;13.13;100.00;100195.72;5334780;27;20035;-72
2023/11/14 02:17:23;;;;;;;25.73;5.88;;;;;;;13.10;100.00;100190.78;5336461;27;20030;-72
2023/11/14 02:19:54;;;;;;;21.33;5.90;;;;;;;13.10;100.00;100203.09;5335370;27;20023;-72
2023/11/14 02:22:26;;;;;;;27.73;5.93;;;;;;;13.07;100.00;100191.13;5336901;27;20029;-71
2023/11/14 02:24:59;;;;;;;28.27;7.47;;;;;;;13.07;100.00;100200.81;5336096;27;20049;-72
2023/11/14 02:27:31;;;;;;;31.23;6.07;;;;;;;13.04;100.00;100209.03;5335542;27;20039;-72
2023/11/14 02:30:04;;;;;;;26.17;6.15;;;;;;;13.03;100.00;100195.06;5337099;27;20046;-72
2023/11/14 02:32:36;;;;;;;;;;;;;;;13.65;100.00;100197.25;5336169;27;20030;-72
2023/11/14 02:35:08;;;;;;;26.92;5.90;;;;;;;13.00;100.00;100199.81;5332732;27;19920;-72
2023/11/14 02:37:40;;;;;;;26.75;6.57;;;;;;;12.89;100.00;100186.00;5333139;27;20046;-72
2023/11/14 02:40:16;;;;;;;23.83;5.75;;;;;;;12.88;100.00;100196.69;5336436;27;20041;-72
2023/11/14 02:42:48;;;;;;;26.35;5.88;;;;;;;12.86;100.00;100199.44;5333930;27;20031;-72
2023/11/14 02:45:25;;;;;;;25.40;5.53;;;;;;;12.85;100.00;100204.88;5335365;27;20031;-72
2023/11/14 02:47:56;;;;;;;24.02;6.00;;;;;;;12.86;100.00;100194.19;5335627;27;20030;-72
2023/11/14 02:50:28;;;;;;;23.55;5.03;;;;;;;12.81;100.00;100204.38;5337097;27;20031;-73
2023/11/14 02:53:00;;;;;;;29.98;5.95;;;;;;;12.86;100.00;100196.00;5335845;27;20023;-72
2023/11/14 02:55:32;;;;;;;34.45;7.40;;;;;;;12.90;100.00;100210.47;5337120;27;20034;-72
2023/11/14 02:58:04;;;;;;;27.63;6.25;;;;;;;12.89;100.00;100204.41;5336415;27;20031;-72
2023/11/14 03:00:36;;;;;;;24.60;5.33;;;;;;;12.92;100.00;100219.03;5333858;27;20527;-73
2023/11/14 03:03:09;;;;;;;23.92;6.20;;;;;;;12.85;100.00;100202.25;5335288;27;20023;-73
2023/11/14 03:05:41;;;;;;;28.35;5.85;;;;;;;12.81;100.00;100219.34;5335859;27;20030;-72
2023/11/14 03:08:13;;;;;;;25.73;5.78;;;;;;;12.83;100.00;100210.28;5336291;27;20362;-72
2023/11/14 03:10:45;;;;;;;25.53;6.00;;;;;;;12.84;100.00;100216.34;5334325;27;20038;-72
2023/11/14 03:13:17;;;;;;;27.50;7.10;;;;;;;12.82;100.00;100207.81;5335600;27;20031;-73
2023/11/14 03:15:49;;;;;;;28.42;6.80;;;;;;;12.82;100.00;100218.34;5334984;27;20030;-72
2023/11/14 03:18:21;;;;;;;23.38;5.80;;;;;;;12.76;100.00;100225.03;5335964;27;20502;-72
2023/11/14 03:20:53;;;;;;;24.48;6.72;;;;;;;12.79;100.00;100240.50;5337032;27;20015;-72
2023/11/14 03:23:25;;;;;;;30.08;6.35;;;;;;;12.77;100.00;100233.78;5334886;27;20037;-72
2023/11/14 03:25:57;;;;;;;26.08;5.43;;;;;;;12.76;100.00;100224.22;5333799;27;20027;-72
2023/11/14 03:28:29;;;;;;;22.83;5.97;;;;;;;12.78;100.00;100220.47;5332435;28;20033;-72
2023/11/14 03:31:01;;;;;;;21.80;6.45;;;;;;;12.78;100.00;100232.78;5326296;28;20399;-72
2023/11/14 03:33:33;;;;;;;27.33;6.27;;;;;;;12.73;100.00;100235.91;5332797;28;20038;-72
2023/11/14 03:36:05;;;;;;;25.27;6.28;;;;;;;12.76;100.00;100234.75;5334557;28;20289;-71
2023/11/14 03:38:37;;;;;;;23.42;5.60;;;;;;;12.76;100.00;100251.31;5314216;28;20039;-72
2023/11/14 03:41:09;;;;;;;35.85;6.80;;;;;;;12.74;100.00;100234.09;5336993;27;20031;-72
2023/11/14 03:43:41;;;;;;;27.58;5.93;;;;;;;12.76;100.00;100261.03;5333973;28;20389;-72
2023/11/14 03:46:13;;;;;;;26.98;5.60;;;;;;;12.66;100.00;100240.97;5337068;28;20019;-72
2023/11/14 03:48:45;;;;;;;27.65;5.65;;;;;;;12.68;100.00;100251.31;5336091;27;20035;-72
2023/11/14 03:51:16;;;;;;;25.35;5.63;;;;;;;12.72;100.00;100249.19;5320681;27;20043;-72
2023/11/14 03:53:49;;;;;;;28.35;6.13;;;;;;;12.68;100.00;100240.78;5336624;27;20031;-72
2023/11/14 03:56:21;;;;;;;24.17;6.07;;;;;;;12.71;100.00;100239.66;5332866;27;20027;-72
2023/11/14 03:58:53;;;;;;;25.30;5.75;;;;;;;12.70;100.00;100251.97;5339055;27;20035;-73
2023/11/14 04:01:25;;;;;;;25.52;5.38;;;;;;;12.70;100.00;100244.09;5340827;27;20059;-72
2023/11/14 04:03:57;;;;;;;28.75;5.95;;;;;;;12.72;100.00;100247.38;5339610;27;20035;-73
2023/11/14 04:06:29;;;;;;;33.25;7.18;;;;;;;12.74;100.00;100249.84;5339137;27;20038;-72
2023/11/14 04:09:01;;;;;;;34.10;6.80;;;;;;;12.68;100.00;100245.22;5338235;27;20035;-72
2023/11/14 04:11:33;;;;;;;25.27;5.23;;;;;;;12.72;100.00;100226.34;5339760;27;20476;-73
2023/11/14 04:14:05;;;;;;;25.60;6.18;;;;;;;12.75;100.00;100235.72;5338976;27;20034;-72
2023/11/14 04:16:37;;;;;;;22.17;5.15;;;;;;;12.72;100.00;100250.00;5336175;27;20391;-72
2023/11/14 04:19:09;;;;;;;23.88;5.78;;;;;;;12.76;100.00;100247.88;5337840;27;20034;-72
2023/11/14 04:21:41;;;;;;;24.98;5.72;;;;;;;12.71;100.00;100237.84;5336808;27;20489;-73
2023/11/14 04:24:12;;;;;;;29.10;6.20;;;;;;;12.71;100.00;100251.00;5334375;27;20115;-73
2023/11/14 04:26:44;;;;;;;28.45;6.88;;;;;;;12.73;100.00;100240.31;5294998;28;20043;-73
2023/11/14 04:29:16;;;;;;;28.88;6.00;;;;;;;12.72;100.00;100243.94;5314326;28;20034;-73
2023/11/14 04:31:48;;;;;;;20.83;5.57;;;;;;;12.72;100.00;100244.75;5315253;28;20023;-73
2023/11/14 04:34:20;;;;;;;22.52;5.63;;;;;;;12.82;100.00;100245.44;5317948;28;20248;-73
2023/11/14 04:36:52;;;;;;;22.38;6.22;;;;;;;12.82;100.00;100244.63;5337298;27;20045;-73
2023/11/14 04:39:24;;;;;;;24.98;5.43;;;;;;;12.81;100.00;100253.50;5336927;27;20434;-73
2023/11/14 04:41:56;;;;;;;25.55;5.93;;;;;;;12.79;100.00;100243.13;5338952;27;20031;-73
2023/11/14 04:44:28;;;;;;;25.77;5.30;;;;;;;12.83;100.00;100248.91;5338152;27;20505;-72
2023/11/14 04:46:59;;;;;;;25.33;6.55;;;;;;;12.80;100.00;100236.06;5336653;27;20098;-73
2023/11/14 04:49:31;;;;;;;24.67;6.03;;;;;;;12.80;100.00;100249.22;5338161;27;20037;-73
2023/11/14 04:52:04;;;;;;;26.67;6.45;;;;;;;12.81;100.00;100250.88;5331743;27;20024;-73
2023/11/14 04:54:35;;;;;;;23.50;5.83;;;;;;;12.81;100.00;100243.00;5315991;28;20067;-73
2023/11/14 04:57:07;;;;;;;25.73;6.00;;;;;;;12.85;100.00;100249.56;5313454;28;20027;-73
2023/11/14 04:59:39;;;;;;;21.20;5.68;;;;;;;12.86;100.00;100254.66;5314246;28;20535;-73
2023/11/14 05:02:11;;;;;;;26.98;7.35;;;;;;;12.84;100.00;100267.16;5316196;28;20048;-74
2023/11/14 05:04:43;;;;;;;25.38;6.28;;;;;;;12.78;100.00;100253.81;5333599;27;20015;-73
2023/11/14 05:07:15;;;;;;;31.83;6.63;;;;;;;12.86;100.00;100269.63;5337218;27;20031;-73
2023/11/14 05:09:47;;;;;;;23.85;5.88;;;;;;;12.80;100.00;100257.91;5338503;27;20084;-73
2023/11/14 05:12:19;;;;;;;27.83;6.00;;;;;;;12.74;100.00;100266.44;5337713;27;20034;-73
2023/11/14 05:14:51;;;;;;;22.33;6.05;;;;;;;12.71;100.00;100268.56;5337549;27;20388;-73
2023/11/14 05:17:23;;;;;;;28.08;6.50;;;;;;;12.71;100.00;100285.16;5335376;27;20027;-73
2023/11/14 05:19:57;;;;;;;22.83;5.57;;;;;;;12.72;100.00;100294.69;5315400;27;20039;-73
2023/11/14 05:22:29;;;;;;;25.20;5.00;;;;;;;12.66;100.00;100285.63;5315743;28;20040;-74
2023/11/14 05:25:00;;;;;;;29.35;6.45;;;;;;;12.70;100.00;100288.78;5317821;28;20541;-74
2023/11/14 05:27:32;;;;;;;19.33;4.57;;;;;;;12.70;100.00;100280.88;5315513;28;20024;-73
2023/11/14 05:30:10;;;;;;;29.42;6.70;;;;;;;12.72;100.00;100285.97;5316692;28;20034;-74
2023/11/14 05:32:42;;;;;;;29.58;5.72;;;;;;;12.74;100.00;100273.50;5317600;28;20031;-74
2023/11/14 05:35:14;;;;;;;23.08;5.15;;;;;;;12.76;100.00;100282.06;5315440;28;20377;-74
2023/11/14 05:37:46;;;;;;;26.08;5.95;;;;;;;12.76;100.00;100276.78;5315482;28;20031;-73
2023/11/14 05:40:18;;;;;;;27.83;4.97;;;;;;;12.75;100.00;100275.97;5314018;28;20054;-73
2023/11/14 05:42:50;;;;;;;28.02;6.57;;;;;;;12.75;100.00;100270.72;5337051;27;20041;-73
2023/11/14 05:45:22;;;;;;;22.33;5.72;;;;;;;12.75;100.00;100283.03;5337951;27;20033;-74
2023/11/14 05:47:53;;;;;;;29.00;5.63;;;;;;;12.75;100.00;100283.84;5328615;27;20496;-73
2023/11/14 05:50:25;;;;;;;19.10;5.22;;;;;;;12.78;100.00;100291.44;5337577;27;20028;-74
2023/11/14 05:52:57;;;;;;;27.75;5.82;;;;;;;12.67;100.00;100273.31;5334600;27;20514;-73
2023/11/14 05:55:29;;;;;;;28.38;6.45;;;;;;;12.71;100.00;100282.53;5314265;27;20414;-73
2023/11/14 05:58:01;;;;;;;18.42;5.20;;;;;;;12.73;100.00;100291.09;5333212;27;20027;-73
2023/11/14 06:00:33;;;;;;;23.93;6.37;;;;;;;12.78;100.00;100295.88;5335087;27;20043;-73
2023/11/14 06:03:05;;;;;;;21.83;5.90;;;;;;;12.75;100.00;100297.00;5337559;27;20388;-73
2023/11/14 06:05:37;;;;;;;20.88;5.32;;;;;;;12.66;100.00;100295.34;5332977;27;20023;-73
2023/11/14 06:08:09;;;;;;;26.92;5.80;;;;;;;12.68;100.00;100300.41;5335793;27;20064;-73
2023/11/14 06:10:41;;;;;;;22.83;5.10;;;;;;;12.65;100.00;100291.88;5334650;27;20027;-74
2023/11/14 06:13:13;;;;;;;25.80;6.53;;;;;;;12.68;100.00;100290.72;5332448;27;20110;-73
2023/11/14 06:15:44;;;;;;;23.70;6.07;;;;;;;12.61;100.00;100295.81;5318461;27;20034;-73
2023/11/14 06:18:16;;;;;;;29.38;6.75;;;;;;;12.62;100.00;100301.88;5337287;27;20069;-73
2023/11/14 06:20:48;;;;;;;25.08;6.55;;;;;;;12.59;100.00;100313.53;5334927;27;20027;-73
2023/11/14 06:23:20;;;;;;;27.65;5.85;;;;;;;12.58;100.00;100303.19;5337168;27;20038;-73
2023/11/14 06:25:53;;;;;;;21.25;5.13;;;;;;;12.53;100.00;100292.28;5336342;27;20023;-74
2023/11/14 06:28:25;;;;;;;24.87;5.90;;;;;;;12.62;100.00;100307.13;5337636;27;20029;-73
2023/11/14 06:30:57;;;;;;;19.77;6.00;;;;;;;12.57;100.00;100307.59;5334868;27;20653;-73
2023/11/14 06:33:32;;;;;;;26.48;6.45;;;;;;;12.61;100.00;100303.69;5331867;27;20046;-73
2023/11/14 06:36:04;;;;;;;26.02;6.00;;;;;;;12.57;100.00;100304.94;5334776;27;20472;-73
2023/11/14 06:38:36;;;;;;;25.17;6.60;;;;;;;12.59;100.00;100323.22;5335989;27;20392;-73
2023/11/14 06:41:11;;;;;;;25.90;5.82;;;;;;;12.59;100.00;100316.16;5335930;27;20297;-73
2023/11/14 06:43:43;;;;;;;21.55;6.15;;;;;;;12.60;100.00;100319.59;5323874;27;20031;-73
2023/11/14 06:46:16;;;;;;;25.10;5.50;;;;;;;12.56;100.00;100329.59;5334397;27;20031;-73
2023/11/14 06:48:47;;;;;;;22.77;4.88;;;;;;;12.62;100.00;100326.34;5334924;27;20019;-73
2023/11/14 06:51:19;;;;;;;21.85;4.85;;;;;;;12.58;100.00;100330.28;5336208;27;20666;-73
2023/11/14 06:53:51;;;;;;;21.35;5.45;;;;;;;12.62;100.00;100336.88;5333809;27;20506;-73
2023/11/14 06:56:23;;;;;;;24.20;5.15;;;;;;;12.64;100.00;100336.69;5334846;27;20041;-73
2023/11/14 06:58:55;;;;;;;25.33;5.95;;;;;;;12.63;100.00;100327.16;5334230;27;20023;-72
2023/11/14 07:01:27;;;;;;;25.42;4.95;;;;;;;12.63;100.00;100341.13;5330756;27;20466;-73
2023/11/14 07:03:59;;;;;;;24.13;5.43;;;;;;;12.67;100.00;100339.03;5337504;27;20477;-73
2023/11/14 07:06:31;;;;;;;26.60;5.80;;;;;;;12.69;100.00;100328.34;5332621;27;20027;-73
2023/11/14 07:09:03;;;;;;;23.38;5.00;;;;;;;12.72;100.00;100344.63;5330733;27;20042;-73
2023/11/14 07:11:35;;;;;;;25.35;5.05;;;;;;;12.73;100.00;100340.19;5330881;27;20039;-73
2023/11/14 07:14:08;;;;;;;25.08;5.53;;;;;;;12.73;100.00;100348.91;5336200;27;20035;-73
2023/11/14 07:16:39;;;;;;;16.70;3.95;;;;;;;12.75;100.00;100339.06;5331915;27;20035;-73
2023/11/14 07:19:11;;;;;;;26.85;6.25;;;;;;;12.79;100.00;100342.19;5335940;27;20469;-74
2023/11/14 07:21:45;;;;;;;20.52;4.82;;;;;;;12.72;100.00;100328.84;5333535;27;20027;-76
2023/11/14 07:24:17;;;;;;;21.13;5.45;;;;;;;12.74;100.00;100331.34;5334507;27;20373;-74
2023/11/14 07:26:49;;;;;;;21.52;5.15;;;;;;;12.74;100.00;100340.03;5336787;27;20050;-73
2023/11/14 07:29:21;;;;;;;23.83;5.10;;;;;;;12.79;100.00;100340.38;5334953;27;20462;-74
2023/11/14 07:31:53;;;;;;;26.45;5.65;;;;;;;12.81;100.00;100343.69;5336109;28;20073;-74
2023/11/14 07:34:25;;;;;;;22.95;6.03;;;;;;;12.80;100.00;100325.44;5335437;28;20023;-74
2023/11/14 07:36:57;;;;;;;25.90;5.05;;;;;;;12.80;100.00;100331.50;5326461;28;20053;-74
2023/11/14 07:39:29;;;;;;;22.45;5.07;;;;;;;12.82;100.00;100319.06;5331122;27;20038;-74
2023/11/14 07:42:01;;;;;;;21.57;4.43;;;;;;;12.87;100.00;100329.91;5333277;28;20030;-74
2023/11/14 07:44:33;;;;;;;20.35;5.05;;;;;;;12.83;100.00;100330.38;5332526;28;20031;-74
2023/11/14 07:47:05;;;;;;;23.42;5.13;;;;;;;12.87;100.00;100319.38;5332639;28;20019;-74
2023/11/14 07:49:38;;;;;;;21.88;5.13;;;;;;;12.89;100.00;100332.41;5332701;27;20480;-74
2023/11/14 07:52:10;;;;;;;17.80;5.72;;;;;;;12.91;100.00;100338.31;5331061;28;20492;-74
2023/11/14 07:54:42;;;;;;;20.67;4.95;;;;;;;12.87;100.00;100332.53;5334992;28;20182;-74
2023/11/14 07:57:14;;;;;;;21.27;4.93;;;;;;;12.97;100.00;100328.97;5333423;28;20037;-74
2023/11/14 07:59:46;;;;;;;21.80;5.65;;;;;;;12.99;100.00;100324.38;5333303;28;20030;-73
2023/11/14 08:02:18;;;;;;;21.95;4.80;;;;;;;13.02;100.00;100326.69;5332849;28;20473;-74
2023/11/14 08:04:52;;;;;;;23.88;4.85;;;;;;;12.99;100.00;100329.63;5331233;28;20423;-74
2023/11/14 08:07:24;;;;;;;22.33;5.53;;;;;;;13.02;100.00;100337.22;5332860;28;20026;-74
2023/11/14 08:09:56;;;;;;;19.80;5.40;;;;;;;13.04;100.00;100343.97;5333115;28;20598;-74
2023/11/14 08:12:27;;;;;;;17.85;5.28;;;;;;;13.04;100.00;100324.75;5333401;28;20032;-74
2023/11/14 08:15:00;;;;;;;19.48;5.30;;;;;;;13.01;100.00;100317.16;5333027;28;20034;-73
2023/11/14 08:17:32;;;;;;;21.42;5.35;;;;;;;13.10;100.00;100335.44;5331837;28;20027;-74
2023/11/14 08:20:04;;;;;;;19.38;5.20;;;;;;;13.03;100.00;100334.44;5334105;28;20088;-73
2023/11/14 08:22:36;;;;;;;16.87;4.37;;;;;;;13.14;100.00;100328.88;5334103;28;20039;-73
2023/11/14 08:25:08;;;;;;;19.40;5.50;;;;;;;13.18;100.00;100333.81;5311932;28;20066;-74
2023/11/14 08:27:42;;;;;;;19.90;4.55;;;;;;;13.23;100.00;100316.59;5331934;28;20027;-73
2023/11/14 08:30:15;;;;;;;23.10;4.97;;;;;;;13.23;100.00;100319.25;5333626;28;20038;-73
2023/11/14 08:32:47;;;;;;;19.10;5.47;;;;;;;13.28;100.00;100318.75;5316096;28;20036;-74
2023/11/14 08:35:20;;;;;;;15.63;4.53;;;;;;;13.31;100.00;100319.25;5307847;28;20410;-74
2023/11/14 08:37:53;;;;;;;21.95;5.50;;;;;;;13.33;100.00;100313.81;5313940;28;20028;-73
2023/11/14 08:40:25;;;;;;;20.95;5.18;;;;;;;13.27;100.00;100311.84;5313494;28;20031;-73
2023/11/14 08:42:57;;;;;;;16.17;4.07;;;;;;;13.33;100.00;100306.78;5314871;28;20020;-73
2023/11/14 08:45:29;;;;;;;21.10;5.15;;;;;;;13.35;100.00;100310.06;5314231;28;20062;-73
2023/11/14 08:48:03;;;;;;;21.73;4.78;;;;;;;13.40;100.00;100312.19;5298276;28;20051;-73
2023/11/14 08:50:39;;;;;;;20.52;4.75;;;;;;;13.36;100.00;100316.13;5294596;28;20047;-74
2023/11/14 08:53:11;;;;;;;18.83;4.60;;;;;;;13.43;100.00;100324.22;5315139;28;20031;-73
2023/11/14 08:55:43;;;;;;;19.33;5.10;;;;;;;13.48;100.00;100308.75;5311626;28;20509;-73
2023/11/14 08:58:14;;;;;;;22.92;4.60;;;;;;;13.49;100.00;100320.94;5314203;28;20053;-74
2023/11/14 09:00:47;;;;;;;16.77;4.32;;;;;;;13.53;100.00;100327.53;5324867;27;20035;-74
2023/11/14 09:03:18;;;;;;;26.80;5.72;;;;;;;13.59;100.00;100330.31;5334673;27;20048;-74
2023/11/14 09:05:51;;;;;;;29.10;5.63;;;;;;;13.57;100.00;100329.69;5338531;27;20499;-74
2023/11/14 09:08:23;;;;;;;26.43;5.23;;;;;;;13.67;100.00;100324.25;5333690;27;20540;-74
2023/11/14 09:10:55;;;;;;;16.63;4.78;;;;;;;13.61;100.00;100328.38;5338085;27;20033;-74
2023/11/14 09:13:27;;;;;;;20.70;4.68;;;;;;;13.64;100.00;100329.84;5337911;27;20030;-74
2023/11/14 09:16:01;;;;;;;16.20;4.63;;;;;;;13.62;100.00;100337.09;5335892;27;20039;-74
2023/11/14 09:18:35;;;;;;;22.00;5.18;;;;;;;13.62;100.00;100337.91;5335674;27;20031;-74
2023/11/14 09:21:07;;;;;;;19.13;5.07;;;;;;;13.64;100.00;100340.38;5336580;27;20037;-74
2023/11/14 09:23:39;;;;;;;22.98;5.07;;;;;;;13.61;100.00;100338.06;5336738;27;20031;-74
2023/11/14 09:26:11;;;;;;;18.25;5.13;;;;;;;13.65;100.00;100336.75;5337778;27;20396;-74
2023/11/14 09:28:43;;;;;;;21.43;5.07;;;;;;;13.72;100.00;100331.69;5327333;27;20415;-74
2023/11/14 09:31:15;;;;;;;24.88;5.60;;;;;;;13.75;100.00;100337.44;5331791;27;20306;-74
2023/11/14 09:33:47;;;;;;;25.23;5.72;;;;;;;13.81;100.00;100341.22;5337161;27;20396;-74
2023/11/14 09:36:19;;;;;;;20.48;6.07;;;;;;;13.90;100.00;100339.41;5336035;27;20031;-74
2023/11/14 09:38:51;;;;;;;15.02;5.15;;;;;;;14.00;100.00;100348.78;5338560;27;20048;-74
2023/11/14 09:41:24;;;;;;;23.00;5.18;;;;;;;13.95;100.00;100342.38;5337449;27;20042;-74
2023/11/14 09:43:56;;;;;;;21.95;5.40;;;;;;;14.03;100.00;100355.56;5337134;27;20027;-74
2023/11/14 09:46:32;;;;;;;20.52;5.25;;;;;;;14.00;100.00;100351.44;5336387;27;20534;-74
2023/11/14 09:49:04;;;;;;;18.05;4.90;;;;;;;13.99;100.00;100357.69;5334843;27;20020;-74
2023/11/14 09:51:36;;;;;;;21.70;5.60;;;;;;;14.06;100.00;100365.78;5334920;27;20405;-74
2023/11/14 09:54:08;;;;;;;22.33;5.30;;;;;;;14.11;100.00;100364.28;5322374;27;20031;-74
2023/11/14 09:56:40;;;;;;;21.23;5.05;;;;;;;14.10;100.00;100364.44;5310929;28;20051;-74
2023/11/14 09:59:12;;;;;;;32.05;6.55;;;;;;;14.10;100.00;100360.00;5314855;28;20499;-74
2023/11/14 10:01:44;;;;;;;23.90;4.77;;;;;;;14.15;100.00;100359.50;5311749;28;20047;-74
2023/11/14 10:04:16;;;;;;;23.90;4.93;;;;;;;14.12;100.00;100354.56;5315295;28;20023;-74
2023/11/14 10:06:51;;;;;;;23.48;5.43;;;;;;;14.11;100.00;100356.38;5316357;28;20595;-74
2023/11/14 10:09:25;;;;;;;17.25;3.80;;;;;;;14.21;100.00;100344.84;5312231;28;20050;-74
2023/11/14 10:11:57;;;;;;;17.65;4.63;;;;;;;14.41;100.00;100356.69;5313409;28;20031;-74
2023/11/14 10:14:41;;;;;;;16.05;4.18;;;;;;;14.81;100.00;100363.72;5311897;28;20032;-74
2023/11/14 10:17:16;;;;;;;20.20;4.63;;;;;;;14.71;100.00;100376.28;5312306;28;20040;-74
2023/11/14 10:20:06;;;;;;;15.57;4.45;;;;;;;14.93;100.00;100356.25;5312013;28;20027;-74
2023/11/14 10:22:46;;;;;;;16.25;3.88;;;;;;;14.84;100.00;100350.19;5303923;28;20031;-74
2023/11/14 10:25:26;;;;;;;13.52;3.97;;;;;;;14.89;100.00;100349.69;5333167;27;20054;-74
2023/11/14 10:28:05;;;;;;;13.40;3.13;;;;;;;14.91;100.00;100344.22;5332338;27;21025;-74
2023/11/14 10:30:49;;;;;;;13.45;3.75;;;;;;;15.15;100.00;100335.38;5334209;27;20381;-74
2023/11/14 10:33:20;;;;;;;12.73;3.25;;;;;;;14.90;100.00;100339.97;5334934;27;20027;-74
2023/11/14 10:36:01;;;;;;;13.70;3.40;;;;;;;15.01;100.00;100344.88;5335925;27;20504;-74
2023/11/14 10:38:33;;;;;;;16.10;3.72;;;;;;;14.71;100.00;100336.72;5331171;27;20038;-74
2023/11/14 10:41:05;;;;;;;16.70;3.92;;;;;;;14.69;100.00;100325.50;5331933;27;20031;-74
2023/11/14 10:43:37;;;;;;;12.63;3.60;;;;;;;14.67;100.00;100327.50;5336999;27;20046;-74
2023/11/14 10:46:13;;;;;;;15.98;4.28;;;;;;;14.71;100.00;100327.97;5333960;27;20024;-74
2023/11/14 10:48:45;;;;;;;17.02;4.13;;;;;;;14.67;100.00;100311.69;5326031;27;20027;-74
2023/11/14 10:51:20;;;;;;;15.82;5.07;;;;;;;14.57;100.00;100306.59;5334748;27;20050;-74
2023/11/14 10:53:54;;;;;;;16.25;3.92;;;;;;;14.60;100.00;100306.25;5334942;27;20408;-74
2023/11/14 10:56:27;;;;;;;16.25;4.53;;;;;;;14.60;100.00;100306.25;5334521;27;20038;-74
2023/11/14 10:58:59;;;;;;;11.38;3.40;;;;;;;14.67;100.00;100311.69;5332407;27;20032;-74
2023/11/14 11:01:32;;;;;;;12.60;3.90;;;;;;;14.53;100.00;100300.00;5333853;27;20412;-74
2023/11/14 11:04:06;;;;;;;21.33;4.90;;;;;;;14.48;100.00;100306.75;5334943;27;20280;-74
2023/11/14 11:06:39;;;;;;;16.20;4.18;;;;;;;14.50;100.00;100299.53;5336396;27;20580;-74
2023/11/14 11:09:13;;;;;;;15.45;4.25;;;;;;;14.52;100.00;100287.00;5333159;27;20500;-74
2023/11/14 11:11:53;;;;;;;15.32;3.65;;;;;;;14.62;100.00;100284.16;5336355;27;20058;-74
2023/11/14 11:14:25;;;;;;;12.30;3.53;;;;;;;14.63;100.00;100283.19;5333547;27;20041;-74
2023/11/14 11:16:59;;;;;;;17.52;3.83;;;;;;;14.70;100.00;100282.34;5328835;27;20027;-74
2023/11/14 11:19:32;;;;;;;12.20;3.53;;;;;;;14.74;100.00;100285.47;5332609;27;20034;-74
2023/11/14 11:22:06;;;;;;;10.65;3.15;;;;;;;14.75;100.00;100285.28;5332175;27;20116;-74
2023/11/14 11:25:17;;;;;;;12.13;3.63;;;;;;;15.25;100.00;100278.75;5336102;27;20031;-74
2023/11/14 11:27:49;;;;;;;9.75;2.63;;;;;;;15.05;100.00;100275.75;5333284;27;20038;-74
2023/11/14 11:30:21;;;;;;;11.65;2.85;;;;;;;15.12;100.00;100275.88;5332416;27;20027;-73
2023/11/14 11:32:55;;;;;;;9.73;2.40;;;;;;;15.21;100.00;100272.19;5332750;28;20035;-74